createdAt,value
2022-12-20T00:02:35.676Z,2.55
2022-12-20T00:05:24.271Z,2.53
2022-12-20T00:08:13.230Z,2.43
2022-12-20T00:11:03.018Z,2.39
2022-12-20T00:13:51.903Z,2.40
2022-12-20T00:16:40.373Z,2.42
2022-12-20T00:19:30.235Z,2.36
2022-12-20T00:22:18.671Z,2.38
2022-12-20T00:25:08.043Z,2.44
2022-12-20T00:27:56.573Z,2.46
2022-12-20T00:30:45.054Z,2.39
2022-12-20T00:33:34.033Z,2.45
2022-12-20T00:36:24.918Z,2.67
2022-12-20T00:39:13.461Z,2.56
2022-12-20T00:42:01.947Z,2.53
2022-12-20T00:44:50.400Z,2.57
2022-12-20T00:47:38.911Z,2.46
2022-12-20T00:50:27.386Z,2.45
2022-12-20T00:53:22.673Z,2.52
2022-12-20T00:56:15.087Z,2.58
2022-12-20T00:59:03.726Z,2.65
2022-12-20T01:01:52.677Z,2.48
2022-12-20T01:04:41.356Z,2.57
2022-12-20T01:07:29.843Z,2.59
2022-12-20T01:10:19.910Z,2.61
2022-12-20T01:13:08.407Z,2.63
2022-12-20T01:15:57.231Z,2.62
2022-12-20T01:18:46.477Z,2.46
2022-12-20T01:21:35.600Z,2.58
2022-12-20T01:24:24.064Z,2.62
2022-12-20T01:27:13.875Z,2.58
2022-12-20T01:30:02.405Z,2.57
2022-12-20T01:32:50.840Z,2.53
2022-12-20T01:35:39.269Z,2.55
2022-12-20T01:38:28.009Z,2.45
2022-12-20T01:41:18.073Z,2.45
2022-12-20T01:44:46.438Z,2.60
2022-12-20T01:47:37.789Z,2.70
2022-12-20T01:50:26.755Z,2.77
2022-12-20T01:53:15.731Z,2.75
2022-12-20T01:56:07.271Z,2.79
2022-12-20T01:58:56.583Z,2.89
2022-12-20T02:01:46.625Z,2.81
2022-12-20T02:04:35.122Z,2.60
2022-12-20T02:07:26.063Z,2.77
2022-12-20T02:10:16.114Z,2.72
2022-12-20T02:13:09.418Z,2.72
2022-12-20T02:15:59.573Z,2.68
2022-12-20T02:18:54.305Z,2.61
2022-12-20T02:21:44.543Z,2.60
2022-12-20T02:25:14.472Z,2.58
2022-12-20T02:28:05.555Z,2.56
2022-12-20T02:30:55.898Z,2.55
2022-12-20T02:33:48.346Z,2.62
2022-12-20T02:36:36.857Z,2.55
2022-12-20T02:39:27.403Z,2.63
2022-12-20T02:42:18.322Z,2.80
2022-12-20T02:45:15.360Z,2.78
2022-12-20T02:48:09.363Z,2.76
2022-12-20T02:50:59.056Z,2.95
2022-12-20T02:53:47.743Z,2.96
2022-12-20T02:56:39.774Z,2.97
2022-12-20T02:59:31.478Z,2.96
2022-12-20T03:02:20.184Z,2.58
2022-12-20T03:05:10.308Z,2.94
2022-12-20T03:07:58.723Z,2.82
2022-12-20T03:10:47.619Z,2.94
2022-12-20T03:13:36.060Z,2.86
2022-12-20T03:16:24.629Z,2.80
2022-12-20T03:19:13.052Z,2.81
2022-12-20T03:22:02.853Z,2.87
2022-12-20T03:24:51.381Z,2.89
2022-12-20T03:27:39.810Z,2.73
2022-12-20T03:30:28.519Z,3.09
2022-12-20T03:33:17.042Z,2.94
2022-12-20T03:36:06.055Z,3.05
2022-12-20T03:38:56.014Z,3.10
2022-12-20T03:41:44.528Z,2.89
2022-12-20T03:44:33.063Z,3.06
2022-12-20T03:47:21.500Z,3.07
2022-12-20T03:50:10.610Z,3.00
2022-12-20T03:52:59.068Z,2.94
2022-12-20T03:55:48.902Z,2.88
2022-12-20T03:58:37.350Z,2.84
2022-12-20T04:01:27.347Z,2.82
2022-12-20T04:04:16.435Z,2.83
2022-12-20T04:07:04.879Z,2.93
2022-12-20T04:09:53.293Z,2.90
2022-12-20T04:12:43.121Z,2.93
2022-12-20T04:15:31.599Z,2.92
2022-12-20T04:18:20.099Z,2.96
2022-12-20T04:21:10.451Z,2.95
2022-12-20T04:23:59.733Z,2.98
2022-12-20T04:26:49.261Z,2.97
2022-12-20T04:29:39.407Z,2.99
2022-12-20T04:32:27.874Z,3.14
2022-12-20T04:35:16.406Z,3.07
2022-12-20T04:38:04.955Z,2.99
2022-12-20T04:40:55.428Z,3.16
2022-12-20T04:43:43.881Z,3.25
2022-12-20T04:46:33.827Z,3.18
2022-12-20T04:49:22.281Z,3.19
2022-12-20T04:52:28.040Z,3.17
2022-12-20T04:55:16.553Z,3.20
2022-12-20T04:58:07.646Z,3.15
2022-12-20T05:00:56.543Z,3.03
2022-12-20T05:03:46.876Z,3.07
2022-12-20T05:06:35.379Z,3.00
2022-12-20T05:09:23.863Z,3.01
2022-12-20T05:12:12.375Z,2.99
2022-12-20T05:15:00.831Z,3.00
2022-12-20T05:17:49.305Z,3.01
2022-12-20T05:20:39.140Z,3.01
2022-12-20T05:23:45.144Z,3.00
2022-12-20T05:26:36.416Z,3.00
2022-12-20T05:29:24.899Z,3.03
2022-12-20T05:32:13.426Z,3.02
2022-12-20T05:35:01.906Z,2.99
2022-12-20T05:37:51.729Z,3.04
2022-12-20T05:40:40.788Z,3.03
2022-12-20T05:43:29.230Z,3.03
2022-12-20T05:46:17.799Z,3.03
2022-12-20T05:49:06.262Z,3.00
2022-12-20T05:51:54.685Z,3.01
2022-12-20T05:54:44.508Z,3.00
2022-12-20T05:57:32.914Z,3.13
2022-12-20T06:00:21.740Z,3.16
2022-12-20T06:03:11.820Z,3.16
2022-12-20T06:06:00.437Z,3.17
2022-12-20T06:08:49.555Z,3.24
2022-12-20T06:11:39.417Z,3.29
2022-12-20T06:14:27.909Z,3.32
2022-12-20T06:17:16.418Z,3.30
2022-12-20T06:20:06.013Z,3.10
2022-12-20T06:22:54.517Z,3.33
2022-12-20T06:25:43.819Z,3.29
2022-12-20T06:28:33.709Z,3.39
2022-12-20T06:31:22.286Z,3.42
2022-12-20T06:34:11.133Z,3.35
2022-12-20T06:36:59.838Z,3.46
2022-12-20T06:39:48.274Z,3.44
2022-12-20T06:42:36.733Z,3.31
2022-12-20T06:45:26.593Z,3.47
2022-12-20T06:48:15.162Z,3.56
2022-12-20T06:51:03.713Z,3.63
2022-12-20T06:53:52.304Z,3.56
2022-12-20T06:56:41.773Z,3.17
2022-12-20T06:59:30.372Z,3.45
2022-12-20T07:02:20.307Z,3.52
2022-12-20T07:05:09.619Z,3.76
2022-12-20T07:07:58.062Z,3.70
2022-12-20T07:10:46.610Z,3.74
2022-12-20T07:13:35.476Z,3.56
2022-12-20T07:16:24.361Z,3.53
2022-12-20T07:19:15.472Z,3.44
2022-12-20T07:22:04.523Z,3.51
2022-12-20T07:24:53.100Z,3.41
2022-12-20T07:27:41.632Z,3.51
2022-12-20T07:30:31.177Z,3.46
2022-12-20T07:33:19.721Z,3.51
2022-12-20T07:36:12.296Z,3.46
2022-12-20T07:39:00.767Z,3.54
2022-12-20T07:41:49.244Z,3.55
2022-12-20T07:44:37.862Z,3.58
2022-12-20T07:47:26.546Z,3.66
2022-12-20T07:50:15.147Z,3.71
2022-12-20T07:53:06.707Z,3.65
2022-12-20T07:55:55.817Z,3.55
2022-12-20T07:58:44.587Z,3.67
2022-12-20T08:01:33.326Z,3.82
2022-12-20T08:04:25.483Z,3.82
2022-12-20T08:07:14.052Z,3.82
2022-12-20T08:10:04.057Z,3.70
2022-12-20T08:12:52.584Z,3.95
2022-12-20T08:15:41.024Z,4.01
2022-12-20T08:18:29.549Z,4.01
2022-12-20T08:21:18.172Z,4.07
2022-12-20T08:24:08.191Z,4.15
2022-12-20T08:26:58.631Z,4.14
2022-12-20T08:29:47.123Z,4.06
2022-12-20T08:32:36.253Z,4.14
2022-12-20T08:35:25.509Z,4.34
2022-12-20T08:38:14.018Z,4.27
2022-12-20T08:41:06.670Z,4.33
2022-12-20T08:43:56.474Z,4.25
2022-12-20T08:46:45.049Z,4.37
2022-12-20T08:49:33.653Z,4.32
2022-12-20T08:52:22.574Z,4.38
2022-12-20T08:55:12.953Z,4.30
2022-12-20T08:58:01.766Z,4.41
2022-12-20T09:00:51.719Z,4.58
2022-12-20T09:03:41.047Z,4.76
2022-12-20T09:06:29.667Z,4.70
2022-12-20T09:09:18.156Z,4.52
2022-12-20T09:12:07.745Z,4.75
2022-12-20T09:14:56.225Z,4.59
2022-12-20T09:17:47.123Z,4.76
2022-12-20T09:20:35.645Z,4.78
2022-12-20T09:23:24.132Z,4.83
2022-12-20T09:26:14.816Z,4.83
2022-12-20T09:29:03.574Z,4.87
2022-12-20T09:31:52.042Z,4.94
2022-12-20T09:34:41.878Z,4.96
2022-12-20T09:37:31.071Z,4.99
2022-12-20T09:40:21.017Z,4.98
2022-12-20T09:43:10.693Z,5.02
2022-12-20T09:46:00.855Z,5.04
2022-12-20T09:48:49.565Z,5.05
2022-12-20T09:51:53.576Z,5.01
2022-12-20T09:54:49.398Z,5.02
2022-12-20T09:57:49.135Z,5.04
2022-12-20T10:00:41.857Z,5.04
2022-12-20T10:03:32.766Z,5.06
2022-12-20T10:06:30.006Z,5.01
2022-12-20T10:09:35.852Z,4.97
2022-12-20T10:12:30.697Z,5.11
2022-12-20T10:15:22.114Z,5.07
2022-12-20T10:18:35.790Z,5.17
2022-12-20T10:21:29.957Z,5.13
2022-12-20T10:24:20.135Z,5.25
2022-12-20T10:27:13.958Z,5.29
2022-12-20T10:30:02.531Z,5.30
2022-12-20T10:32:52.537Z,5.32
2022-12-20T10:35:43.296Z,5.47
2022-12-20T10:38:45.129Z,5.47
2022-12-20T10:41:35.697Z,5.51
2022-12-20T10:44:27.589Z,5.59
2022-12-20T10:47:26.239Z,5.63
2022-12-20T10:50:16.971Z,5.75
2022-12-20T10:53:21.869Z,5.76
2022-12-20T10:56:17.324Z,5.77
2022-12-20T10:59:28.401Z,5.81
2022-12-20T11:02:28.405Z,5.75
2022-12-20T11:05:25.464Z,5.65
2022-12-20T11:08:36.313Z,5.75
2022-12-20T11:11:26.601Z,5.93
2022-12-20T11:14:15.974Z,5.98
2022-12-20T11:17:16.324Z,5.97
2022-12-20T11:20:23.454Z,5.99
2022-12-20T11:23:23.218Z,6.00
2022-12-20T11:26:25.282Z,6.08
2022-12-20T11:29:26.389Z,5.98
2022-12-20T11:32:25.383Z,6.01
2022-12-20T11:35:16.203Z,5.99
2022-12-20T11:38:11.448Z,6.01
2022-12-20T11:41:11.968Z,5.86
2022-12-20T11:44:26.986Z,6.03
2022-12-20T11:47:32.625Z,6.05
2022-12-20T11:50:43.821Z,5.59
2022-12-20T11:53:37.469Z,6.16
2022-12-20T11:56:29.258Z,6.22
2022-12-20T11:59:22.037Z,6.31
2022-12-20T12:02:13.249Z,4.99
2022-12-20T12:05:06.741Z,6.51
2022-12-20T12:07:58.161Z,6.64
2022-12-20T12:10:52.020Z,6.41
2022-12-20T12:13:41.828Z,6.65
2022-12-20T12:16:35.164Z,6.70
2022-12-20T12:19:26.168Z,6.63
2022-12-20T12:22:18.826Z,6.64
2022-12-20T12:25:12.669Z,6.65
2022-12-20T12:28:01.503Z,6.67
2022-12-20T12:30:54.892Z,6.67
2022-12-20T12:33:46.221Z,6.70
2022-12-20T12:36:55.159Z,6.08
2022-12-20T12:40:02.052Z,6.86
2022-12-20T12:43:06.101Z,6.86
2022-12-20T12:45:58.143Z,6.68
2022-12-20T12:48:51.095Z,6.79
2022-12-20T12:51:41.780Z,6.91
2022-12-20T12:54:36.468Z,6.33
2022-12-20T12:57:26.375Z,7.04
2022-12-20T13:00:51.247Z,7.05
2022-12-20T13:03:46.721Z,7.12
2022-12-20T13:07:24.700Z,7.20
2022-12-20T13:10:50.412Z,7.23
2022-12-20T13:13:40.315Z,7.15
2022-12-20T13:17:09.561Z,7.28
2022-12-20T13:19:40.465Z,7.32
2022-12-20T13:22:29.019Z,7.15
2022-12-20T13:25:30.224Z,7.28
2022-12-20T13:28:46.534Z,7.30
2022-12-20T13:31:35.175Z,7.34
2022-12-20T13:34:54.072Z,7.33
2022-12-20T13:37:55.084Z,7.28
2022-12-20T13:40:45.767Z,7.34
2022-12-20T13:43:37.550Z,7.48
2022-12-20T13:46:31.737Z,7.31
2022-12-20T13:49:24.249Z,7.29
2022-12-20T13:52:30.674Z,7.29
2022-12-20T13:55:27.322Z,7.35
2022-12-20T13:58:18.342Z,7.30
2022-12-20T14:01:08.691Z,7.47
2022-12-20T14:03:59.177Z,7.35
2022-12-20T14:06:52.307Z,7.27
2022-12-20T14:09:40.892Z,7.41
2022-12-20T14:12:36.538Z,7.27
2022-12-20T14:15:28.709Z,7.36
2022-12-20T14:18:20.855Z,7.36
2022-12-20T14:21:11.924Z,7.24
2022-12-20T14:24:02.222Z,7.39
2022-12-20T14:26:53.847Z,7.36
2022-12-20T14:29:42.702Z,7.28
2022-12-20T14:32:31.403Z,7.37
2022-12-20T14:35:20.688Z,7.40
2022-12-20T14:38:23.573Z,7.31
2022-12-20T14:41:33.084Z,7.33
2022-12-20T14:44:23.256Z,7.36
2022-12-20T14:47:16.451Z,7.25
2022-12-20T14:50:07.654Z,7.25
2022-12-20T14:52:56.794Z,7.30
2022-12-20T14:55:47.743Z,7.25
2022-12-20T14:58:36.414Z,7.19
2022-12-20T15:01:27.139Z,7.18
2022-12-20T15:04:25.521Z,7.14
2022-12-20T15:07:30.320Z,7.11
2022-12-20T15:10:18.878Z,7.08
2022-12-20T15:13:13.138Z,7.03
2022-12-20T15:16:04.544Z,6.94
2022-12-20T15:18:54.652Z,6.94
2022-12-20T15:21:44.392Z,6.79
2022-12-20T15:24:33.630Z,6.86
2022-12-20T15:27:22.251Z,6.83
2022-12-20T15:30:15.034Z,6.75
2022-12-20T15:33:03.616Z,6.79
2022-12-20T15:35:52.578Z,6.82
2022-12-20T15:39:10.740Z,6.84
2022-12-20T15:41:50.374Z,6.45
2022-12-20T15:44:39.189Z,6.68
2022-12-20T15:47:29.187Z,6.67
2022-12-20T15:50:18.069Z,6.57
2022-12-20T15:53:06.676Z,6.62
2022-12-20T15:55:56.531Z,6.61
2022-12-20T15:58:45.030Z,6.57
2022-12-20T16:01:40.673Z,6.64
2022-12-20T16:04:31.108Z,6.71
2022-12-20T16:07:19.677Z,6.71
2022-12-20T16:10:09.562Z,6.66
2022-12-20T16:12:58.278Z,6.58
2022-12-20T16:15:47.423Z,6.55
2022-12-20T16:18:35.982Z,6.57
2022-12-20T16:21:27.534Z,6.71
2022-12-20T16:24:17.539Z,6.54
2022-12-20T16:27:06.211Z,6.58
2022-12-20T16:29:54.828Z,6.51
2022-12-20T16:32:43.342Z,6.60
2022-12-20T16:35:33.920Z,6.53
2022-12-20T16:38:24.300Z,6.49
2022-12-20T16:41:15.326Z,6.58
2022-12-20T16:44:04.721Z,6.52
2022-12-20T16:46:53.264Z,6.24
2022-12-20T16:49:47.304Z,6.34
2022-12-20T16:52:40.101Z,6.35
2022-12-20T16:55:37.706Z,6.28
2022-12-20T16:58:52.322Z,6.18
2022-12-20T17:01:38.668Z,6.16
2022-12-20T17:04:27.720Z,6.18
2022-12-20T17:07:16.432Z,6.23
2022-12-20T17:10:11.843Z,6.02
2022-12-20T17:13:01.878Z,6.24
2022-12-20T17:15:50.506Z,6.27
2022-12-20T17:18:38.985Z,6.38
2022-12-20T17:24:41.837Z,6.15
2022-12-20T17:27:30.451Z,6.11
2022-12-20T17:30:21.053Z,6.10
2022-12-20T17:33:11.749Z,5.98
2022-12-20T17:36:00.306Z,6.17
2022-12-20T17:38:50.792Z,6.08
2022-12-20T17:41:39.425Z,6.06
2022-12-20T17:44:29.435Z,6.06
2022-12-20T17:47:19.569Z,6.03
2022-12-20T17:50:10.450Z,6.01
2022-12-20T17:52:58.963Z,6.12
2022-12-20T17:55:47.483Z,6.27
2022-12-20T17:58:36.010Z,6.22
2022-12-20T18:01:25.841Z,6.18
2022-12-20T18:04:17.219Z,6.17
2022-12-20T18:07:05.997Z,6.17
2022-12-20T18:09:54.508Z,6.13
2022-12-20T18:12:43.043Z,6.12
2022-12-20T18:15:31.457Z,6.13
2022-12-20T18:18:20.521Z,6.07
2022-12-20T18:21:11.873Z,5.12
2022-12-20T18:24:00.455Z,6.10
2022-12-20T18:26:48.968Z,6.18
2022-12-20T18:29:37.626Z,6.18
2022-12-20T18:32:26.180Z,6.07
2022-12-20T18:35:14.728Z,6.03
2022-12-20T18:38:04.971Z,6.04
2022-12-20T18:40:53.436Z,5.96
2022-12-20T18:43:43.918Z,6.11
2022-12-20T18:46:32.847Z,6.02
2022-12-20T18:49:21.573Z,6.02
2022-12-20T18:52:10.116Z,6.06
2022-12-20T18:55:00.927Z,6.13
2022-12-20T18:57:49.497Z,6.13
2022-12-20T19:00:37.972Z,6.09
2022-12-20T19:03:27.112Z,6.30
2022-12-20T19:06:16.114Z,6.30
2022-12-20T19:09:06.682Z,6.36
2022-12-20T19:11:57.970Z,6.32
2022-12-20T19:14:46.629Z,6.18
2022-12-20T19:17:35.261Z,6.22
2022-12-20T19:20:23.665Z,6.18
2022-12-20T19:23:12.135Z,6.26
2022-12-20T19:26:05.366Z,6.24
2022-12-20T19:28:55.926Z,5.33
2022-12-20T19:31:44.622Z,6.05
2022-12-20T19:34:33.377Z,4.99
2022-12-20T19:37:22.053Z,5.97
2022-12-20T19:40:11.604Z,5.96
2022-12-20T19:43:00.605Z,5.99
2022-12-20T19:45:50.463Z,5.97
2022-12-20T19:48:38.961Z,5.95
2022-12-20T19:51:28.210Z,5.98
2022-12-20T19:54:16.758Z,6.06
2022-12-20T19:57:05.454Z,6.29
2022-12-20T19:59:56.223Z,6.27
2022-12-20T20:02:46.523Z,6.29
2022-12-20T20:05:35.753Z,6.29
2022-12-20T20:08:24.276Z,6.37
2022-12-20T20:11:14.153Z,6.29
2022-12-20T20:14:04.091Z,6.37
2022-12-20T20:16:53.194Z,6.25
2022-12-20T20:19:44.217Z,6.31
2022-12-20T20:22:32.770Z,6.27
2022-12-20T20:25:21.416Z,6.28
2022-12-20T20:28:10.058Z,6.26
2022-12-20T20:30:58.691Z,6.19
2022-12-20T20:33:47.528Z,6.13
2022-12-20T20:36:37.566Z,6.11
2022-12-20T20:39:26.137Z,6.07
2022-12-20T20:42:19.822Z,5.98
2022-12-20T20:45:12.471Z,6.02
2022-12-20T20:48:05.700Z,6.01
2022-12-20T20:50:54.784Z,6.01
2022-12-20T20:53:44.930Z,6.01
2022-12-20T20:56:33.393Z,5.98
2022-12-20T20:59:22.778Z,5.90
2022-12-20T21:02:13.697Z,5.89
2022-12-20T21:06:07.119Z,5.87
2022-12-20T21:08:11.051Z,5.52
2022-12-20T21:11:05.372Z,5.82
2022-12-20T21:13:54.776Z,5.96
2022-12-20T21:16:43.396Z,5.94
2022-12-20T21:19:31.973Z,6.03
2022-12-20T21:22:20.548Z,6.01
2022-12-20T21:25:09.869Z,6.00
2022-12-20T21:27:59.922Z,6.04
2022-12-20T21:30:48.409Z,5.91
2022-12-20T21:33:36.940Z,5.59
2022-12-20T21:36:25.987Z,5.76
2022-12-20T21:39:15.070Z,5.72
2022-12-20T21:42:03.645Z,5.87
2022-12-20T21:44:53.511Z,5.78
2022-12-20T21:47:42.035Z,5.69
2022-12-20T21:50:30.566Z,5.62
2022-12-20T21:53:19.880Z,5.65
2022-12-20T21:56:08.715Z,5.74
2022-12-20T21:58:57.701Z,5.72
2022-12-20T22:01:47.730Z,5.71
2022-12-20T22:04:36.535Z,5.79
2022-12-20T22:07:25.073Z,5.83
2022-12-20T22:10:13.609Z,5.88
2022-12-20T22:13:02.106Z,5.83
2022-12-20T22:15:51.134Z,5.78
2022-12-20T22:18:42.000Z,6.01
2022-12-20T22:21:32.625Z,5.74
2022-12-20T22:24:21.254Z,5.98
2022-12-20T22:27:11.601Z,6.01
2022-12-20T22:30:00.219Z,5.93
2022-12-20T22:32:48.706Z,5.88
2022-12-20T22:35:38.562Z,5.94
2022-12-20T22:38:27.006Z,6.02
2022-12-20T22:41:18.403Z,6.01
2022-12-20T22:44:07.038Z,6.00
2022-12-20T22:46:55.472Z,5.99
2022-12-20T22:49:43.971Z,5.87
2022-12-20T22:52:34.928Z,5.92
2022-12-20T22:55:23.441Z,5.91
2022-12-20T22:58:11.897Z,5.93
2022-12-20T23:01:01.694Z,5.92
2022-12-20T23:03:50.573Z,5.92
2022-12-20T23:06:39.070Z,6.08
2022-12-20T23:09:29.113Z,6.12
2022-12-20T23:12:35.248Z,6.11
2022-12-20T23:15:41.783Z,6.08
2022-12-20T23:18:30.398Z,6.08
2022-12-20T23:21:36.287Z,6.01
2022-12-20T23:24:24.965Z,6.03
2022-12-20T23:27:14.821Z,6.09
2022-12-20T23:30:04.171Z,6.24
2022-12-20T23:32:53.623Z,6.28
2022-12-20T23:35:42.143Z,6.24
2022-12-20T23:38:32.574Z,6.18
2022-12-20T23:41:21.089Z,6.08
2022-12-20T23:44:10.907Z,6.05
2022-12-20T23:46:59.339Z,6.02
2022-12-20T23:49:47.776Z,6.02
2022-12-20T23:52:36.736Z,5.99
2022-12-20T23:55:25.178Z,5.94
2022-12-20T23:58:13.691Z,5.97
